sensor_id;sensor_type;location;lat;lon;timestamp;P1;durP1;ratioP1;P2;durP2;ratioP2
53961;SDS011;39868;53.398;6.564;2022-11-20T00:01:30;6.03;;;3.50;;
53961;SDS011;39868;53.398;6.564;2022-11-20T00:03:58;7.77;;;3.63;;
53961;SDS011;39868;53.398;6.564;2022-11-20T00:06:27;7.73;;;3.23;;
53961;SDS011;39868;53.398;6.564;2022-11-20T00:08:56;7.90;;;3.27;;
53961;SDS011;39868;53.398;6.564;2022-11-20T00:11:26;9.07;;;3.27;;
53961;SDS011;39868;53.398;6.564;2022-11-20T00:13:55;5.63;;;3.00;;
53961;SDS011;39868;53.398;6.564;2022-11-20T00:16:25;4.40;;;2.53;;
53961;SDS011;39868;53.398;6.564;2022-11-20T00:18:54;8.23;;;3.23;;
53961;SDS011;39868;53.398;6.564;2022-11-20T00:21:23;6.67;;;3.43;;
53961;SDS011;39868;53.398;6.564;2022-11-20T00:23:52;6.47;;;2.90;;
53961;SDS011;39868;53.398;6.564;2022-11-20T00:26:22;7.17;;;3.50;;
53961;SDS011;39868;53.398;6.564;2022-11-20T00:28:52;5.77;;;3.33;;
53961;SDS011;39868;53.398;6.564;2022-11-20T00:31:21;7.17;;;3.30;;
53961;SDS011;39868;53.398;6.564;2022-11-20T00:33:49;7.50;;;3.50;;
53961;SDS011;39868;53.398;6.564;2022-11-20T00:36:18;6.13;;;3.57;;
53961;SDS011;39868;53.398;6.564;2022-11-20T00:38:50;6.43;;;3.57;;
53961;SDS011;39868;53.398;6.564;2022-11-20T00:41:22;9.90;;;4.10;;
53961;SDS011;39868;53.398;6.564;2022-11-20T00:43:53;8.00;;;3.23;;
53961;SDS011;39868;53.398;6.564;2022-11-20T00:46:22;5.37;;;3.20;;
53961;SDS011;39868;53.398;6.564;2022-11-20T00:48:52;7.63;;;3.23;;
53961;SDS011;39868;53.398;6.564;2022-11-20T00:51:20;6.63;;;2.80;;
53961;SDS011;39868;53.398;6.564;2022-11-20T00:53:50;6.70;;;3.07;;
53961;SDS011;39868;53.398;6.564;2022-11-20T00:56:18;6.07;;;3.40;;
53961;SDS011;39868;53.398;6.564;2022-11-20T00:58:47;5.57;;;2.93;;
53961;SDS011;39868;53.398;6.564;2022-11-20T01:01:16;5.33;;;2.90;;
53961;SDS011;39868;53.398;6.564;2022-11-20T01:03:52;7.60;;;3.10;;
53961;SDS011;39868;53.398;6.564;2022-11-20T01:06:22;5.67;;;3.00;;
53961;SDS011;39868;53.398;6.564;2022-11-20T01:08:52;5.43;;;3.00;;
53961;SDS011;39868;53.398;6.564;2022-11-20T01:11:22;6.17;;;2.50;;
53961;SDS011;39868;53.398;6.564;2022-11-20T01:13:55;7.07;;;3.00;;
53961;SDS011;39868;53.398;6.564;2022-11-20T01:16:27;8.13;;;3.50;;
53961;SDS011;39868;53.398;6.564;2022-11-20T01:18:58;6.33;;;2.97;;
53961;SDS011;39868;53.398;6.564;2022-11-20T01:21:28;7.53;;;3.33;;
53961;SDS011;39868;53.398;6.564;2022-11-20T01:23:57;7.90;;;3.47;;
53961;SDS011;39868;53.398;6.564;2022-11-20T01:26:27;8.87;;;3.50;;
53961;SDS011;39868;53.398;6.564;2022-11-20T01:28:56;4.73;;;2.30;;
53961;SDS011;39868;53.398;6.564;2022-11-20T01:31:29;5.90;;;3.17;;
53961;SDS011;39868;53.398;6.564;2022-11-20T01:34:02;8.77;;;3.00;;
53961;SDS011;39868;53.398;6.564;2022-11-20T01:36:32;5.87;;;3.00;;
53961;SDS011;39868;53.398;6.564;2022-11-20T01:39:03;5.00;;;2.73;;
53961;SDS011;39868;53.398;6.564;2022-11-20T01:41:33;7.03;;;3.33;;
53961;SDS011;39868;53.398;6.564;2022-11-20T01:44:20;6.40;;;3.10;;
53961;SDS011;39868;53.398;6.564;2022-11-20T01:47:08;6.53;;;3.50;;
53961;SDS011;39868;53.398;6.564;2022-11-20T01:49:42;6.43;;;3.03;;
53961;SDS011;39868;53.398;6.564;2022-11-20T01:52:18;5.70;;;2.73;;
53961;SDS011;39868;53.398;6.564;2022-11-20T01:54:55;7.30;;;3.37;;
53961;SDS011;39868;53.398;6.564;2022-11-20T01:57:27;9.03;;;3.83;;
53961;SDS011;39868;53.398;6.564;2022-11-20T02:00:00;7.00;;;3.30;;
53961;SDS011;39868;53.398;6.564;2022-11-20T02:02:42;8.87;;;3.53;;
53961;SDS011;39868;53.398;6.564;2022-11-20T02:07:46;5.93;;;3.50;;
53961;SDS011;39868;53.398;6.564;2022-11-20T02:10:14;7.57;;;3.70;;
53961;SDS011;39868;53.398;6.564;2022-11-20T02:12:41;7.80;;;3.80;;
53961;SDS011;39868;53.398;6.564;2022-11-20T02:15:27;9.33;;;3.80;;
53961;SDS011;39868;53.398;6.564;2022-11-20T02:17:56;7.03;;;3.83;;
53961;SDS011;39868;53.398;6.564;2022-11-20T02:20:23;6.93;;;3.83;;
53961;SDS011;39868;53.398;6.564;2022-11-20T02:22:58;9.87;;;4.37;;
53961;SDS011;39868;53.398;6.564;2022-11-20T02:25:30;7.57;;;3.43;;
53961;SDS011;39868;53.398;6.564;2022-11-20T02:27:59;8.13;;;3.47;;
53961;SDS011;39868;53.398;6.564;2022-11-20T02:30:27;5.77;;;3.07;;
53961;SDS011;39868;53.398;6.564;2022-11-20T02:32:54;6.60;;;3.67;;
53961;SDS011;39868;53.398;6.564;2022-11-20T02:37:50;8.83;;;4.13;;
53961;SDS011;39868;53.398;6.564;2022-11-20T02:40:21;8.27;;;3.70;;
53961;SDS011;39868;53.398;6.564;2022-11-20T02:42:53;7.43;;;3.07;;
53961;SDS011;39868;53.398;6.564;2022-11-20T02:45:21;6.45;;;3.30;;
53961;SDS011;39868;53.398;6.564;2022-11-20T02:47:50;7.40;;;3.60;;
53961;SDS011;39868;53.398;6.564;2022-11-20T02:50:18;8.23;;;4.17;;
53961;SDS011;39868;53.398;6.564;2022-11-20T02:52:46;5.87;;;3.57;;
53961;SDS011;39868;53.398;6.564;2022-11-20T02:55:14;8.30;;;4.17;;
53961;SDS011;39868;53.398;6.564;2022-11-20T02:57:41;10.80;;;4.80;;
53961;SDS011;39868;53.398;6.564;2022-11-20T03:00:09;8.50;;;4.17;;
53961;SDS011;39868;53.398;6.564;2022-11-20T03:02:37;8.70;;;4.40;;
53961;SDS011;39868;53.398;6.564;2022-11-20T03:05:04;12.50;;;5.90;;
53961;SDS011;39868;53.398;6.564;2022-11-20T03:07:32;9.83;;;3.93;;
53961;SDS011;39868;53.398;6.564;2022-11-20T03:10:00;24.80;;;9.53;;
53961;SDS011;39868;53.398;6.564;2022-11-20T03:12:27;13.90;;;4.77;;
53961;SDS011;39868;53.398;6.564;2022-11-20T03:14:55;12.53;;;5.23;;
53961;SDS011;39868;53.398;6.564;2022-11-20T03:17:22;12.23;;;6.17;;
53961;SDS011;39868;53.398;6.564;2022-11-20T03:19:50;15.23;;;6.57;;
53961;SDS011;39868;53.398;6.564;2022-11-20T03:22:17;21.27;;;8.10;;
53961;SDS011;39868;53.398;6.564;2022-11-20T03:24:45;15.17;;;6.03;;
53961;SDS011;39868;53.398;6.564;2022-11-20T03:27:12;25.47;;;8.90;;
53961;SDS011;39868;53.398;6.564;2022-11-20T03:29:40;12.43;;;5.63;;
53961;SDS011;39868;53.398;6.564;2022-11-20T03:32:08;16.40;;;7.13;;
53961;SDS011;39868;53.398;6.564;2022-11-20T03:34:35;17.13;;;6.43;;
53961;SDS011;39868;53.398;6.564;2022-11-20T03:37:03;19.90;;;7.83;;
53961;SDS011;39868;53.398;6.564;2022-11-20T03:39:30;17.70;;;7.47;;
53961;SDS011;39868;53.398;6.564;2022-11-20T03:41:57;19.27;;;6.50;;
53961;SDS011;39868;53.398;6.564;2022-11-20T03:44:25;8.33;;;4.80;;
53961;SDS011;39868;53.398;6.564;2022-11-20T03:46:53;13.70;;;5.03;;
53961;SDS011;39868;53.398;6.564;2022-11-20T03:49:20;14.60;;;5.63;;
53961;SDS011;39868;53.398;6.564;2022-11-20T03:51:48;10.30;;;4.63;;
53961;SDS011;39868;53.398;6.564;2022-11-20T03:54:16;9.10;;;5.03;;
53961;SDS011;39868;53.398;6.564;2022-11-20T03:56:43;11.90;;;5.03;;
53961;SDS011;39868;53.398;6.564;2022-11-20T03:59:11;7.20;;;4.10;;
53961;SDS011;39868;53.398;6.564;2022-11-20T04:01:38;14.03;;;4.97;;
53961;SDS011;39868;53.398;6.564;2022-11-20T04:04:12;10.23;;;4.83;;
53961;SDS011;39868;53.398;6.564;2022-11-20T04:06:39;8.47;;;4.67;;
53961;SDS011;39868;53.398;6.564;2022-11-20T04:09:07;14.67;;;5.87;;
53961;SDS011;39868;53.398;6.564;2022-11-20T04:11:36;7.93;;;4.97;;
53961;SDS011;39868;53.398;6.564;2022-11-20T04:14:06;6.43;;;3.87;;
53961;SDS011;39868;53.398;6.564;2022-11-20T04:16:39;7.87;;;4.10;;
53961;SDS011;39868;53.398;6.564;2022-11-20T04:19:09;7.17;;;3.53;;
53961;SDS011;39868;53.398;6.564;2022-11-20T04:21:38;8.10;;;3.83;;
53961;SDS011;39868;53.398;6.564;2022-11-20T04:24:05;7.90;;;4.00;;
53961;SDS011;39868;53.398;6.564;2022-11-20T04:26:34;8.40;;;4.40;;
53961;SDS011;39868;53.398;6.564;2022-11-20T04:29:01;8.07;;;4.60;;
53961;SDS011;39868;53.398;6.564;2022-11-20T04:31:30;9.07;;;4.67;;
53961;SDS011;39868;53.398;6.564;2022-11-20T04:34:00;10.50;;;4.27;;
53961;SDS011;39868;53.398;6.564;2022-11-20T04:36:29;7.63;;;3.93;;
53961;SDS011;39868;53.398;6.564;2022-11-20T04:38:59;7.00;;;4.30;;
53961;SDS011;39868;53.398;6.564;2022-11-20T04:41:29;8.37;;;3.97;;
53961;SDS011;39868;53.398;6.564;2022-11-20T04:43:59;7.20;;;3.93;;
53961;SDS011;39868;53.398;6.564;2022-11-20T04:46:32;8.88;;;4.18;;
53961;SDS011;39868;53.398;6.564;2022-11-20T04:49:02;7.70;;;3.87;;
53961;SDS011;39868;53.398;6.564;2022-11-20T04:51:30;8.33;;;4.23;;
53961;SDS011;39868;53.398;6.564;2022-11-20T04:53:58;9.93;;;4.53;;
53961;SDS011;39868;53.398;6.564;2022-11-20T04:56:25;6.87;;;3.70;;
53961;SDS011;39868;53.398;6.564;2022-11-20T04:58:53;7.03;;;4.13;;
53961;SDS011;39868;53.398;6.564;2022-11-20T05:01:21;7.70;;;4.13;;
53961;SDS011;39868;53.398;6.564;2022-11-20T05:03:50;7.30;;;3.90;;
53961;SDS011;39868;53.398;6.564;2022-11-20T05:06:19;9.63;;;4.10;;
53961;SDS011;39868;53.398;6.564;2022-11-20T05:08:47;8.77;;;4.30;;
53961;SDS011;39868;53.398;6.564;2022-11-20T05:11:16;8.67;;;3.93;;
53961;SDS011;39868;53.398;6.564;2022-11-20T05:13:46;9.80;;;3.93;;
53961;SDS011;39868;53.398;6.564;2022-11-20T05:16:16;8.50;;;3.83;;
53961;SDS011;39868;53.398;6.564;2022-11-20T05:18:49;8.47;;;4.60;;
53961;SDS011;39868;53.398;6.564;2022-11-20T05:21:18;6.80;;;3.70;;
53961;SDS011;39868;53.398;6.564;2022-11-20T05:23:46;6.40;;;3.60;;
53961;SDS011;39868;53.398;6.564;2022-11-20T05:26:17;7.60;;;3.90;;
53961;SDS011;39868;53.398;6.564;2022-11-20T05:28:48;8.27;;;4.27;;
53961;SDS011;39868;53.398;6.564;2022-11-20T05:31:17;10.03;;;4.30;;
53961;SDS011;39868;53.398;6.564;2022-11-20T05:33:52;8.80;;;4.10;;
53961;SDS011;39868;53.398;6.564;2022-11-20T05:36:21;8.57;;;3.97;;
53961;SDS011;39868;53.398;6.564;2022-11-20T05:38:48;8.30;;;4.03;;
53961;SDS011;39868;53.398;6.564;2022-11-20T05:41:18;8.43;;;4.17;;
53961;SDS011;39868;53.398;6.564;2022-11-20T05:43:47;7.30;;;3.93;;
53961;SDS011;39868;53.398;6.564;2022-11-20T05:46:17;8.30;;;4.07;;
53961;SDS011;39868;53.398;6.564;2022-11-20T05:48:54;6.63;;;3.53;;
53961;SDS011;39868;53.398;6.564;2022-11-20T05:51:22;8.33;;;3.80;;
53961;SDS011;39868;53.398;6.564;2022-11-20T05:53:50;8.70;;;4.27;;
53961;SDS011;39868;53.398;6.564;2022-11-20T05:56:18;9.43;;;4.30;;
53961;SDS011;39868;53.398;6.564;2022-11-20T05:58:48;7.83;;;3.93;;
53961;SDS011;39868;53.398;6.564;2022-11-20T06:01:20;8.17;;;3.80;;
53961;SDS011;39868;53.398;6.564;2022-11-20T06:03:49;7.37;;;3.97;;
53961;SDS011;39868;53.398;6.564;2022-11-20T06:06:18;7.13;;;4.03;;
53961;SDS011;39868;53.398;6.564;2022-11-20T06:08:46;12.57;;;4.20;;
53961;SDS011;39868;53.398;6.564;2022-11-20T06:11:14;6.43;;;3.43;;
53961;SDS011;39868;53.398;6.564;2022-11-20T06:13:42;7.97;;;3.50;;
53961;SDS011;39868;53.398;6.564;2022-11-20T06:16:11;8.97;;;4.40;;
53961;SDS011;39868;53.398;6.564;2022-11-20T06:18:40;9.97;;;3.67;;
53961;SDS011;39868;53.398;6.564;2022-11-20T06:21:09;8.23;;;3.67;;
53961;SDS011;39868;53.398;6.564;2022-11-20T06:23:42;9.53;;;3.97;;
53961;SDS011;39868;53.398;6.564;2022-11-20T06:26:15;8.33;;;4.30;;
53961;SDS011;39868;53.398;6.564;2022-11-20T06:28:45;7.87;;;4.17;;
53961;SDS011;39868;53.398;6.564;2022-11-20T06:31:14;8.27;;;4.40;;
53961;SDS011;39868;53.398;6.564;2022-11-20T06:33:43;6.80;;;3.60;;
53961;SDS011;39868;53.398;6.564;2022-11-20T06:36:12;9.60;;;3.90;;
53961;SDS011;39868;53.398;6.564;2022-11-20T06:38:40;7.90;;;4.13;;
53961;SDS011;39868;53.398;6.564;2022-11-20T06:41:15;7.47;;;3.73;;
53961;SDS011;39868;53.398;6.564;2022-11-20T06:43:45;7.93;;;4.00;;
53961;SDS011;39868;53.398;6.564;2022-11-20T06:46:13;6.43;;;3.83;;
53961;SDS011;39868;53.398;6.564;2022-11-20T06:48:44;8.57;;;4.27;;
53961;SDS011;39868;53.398;6.564;2022-11-20T06:51:12;8.97;;;4.10;;
53961;SDS011;39868;53.398;6.564;2022-11-20T06:53:40;10.10;;;4.80;;
53961;SDS011;39868;53.398;6.564;2022-11-20T06:56:08;10.30;;;4.23;;
53961;SDS011;39868;53.398;6.564;2022-11-20T06:58:36;6.93;;;3.70;;
53961;SDS011;39868;53.398;6.564;2022-11-20T07:01:04;11.13;;;4.73;;
53961;SDS011;39868;53.398;6.564;2022-11-20T07:03:34;8.10;;;3.73;;
53961;SDS011;39868;53.398;6.564;2022-11-20T07:06:02;7.80;;;3.87;;
53961;SDS011;39868;53.398;6.564;2022-11-20T07:08:30;7.03;;;4.23;;
53961;SDS011;39868;53.398;6.564;2022-11-20T07:10:58;7.63;;;4.30;;
53961;SDS011;39868;53.398;6.564;2022-11-20T07:13:31;7.43;;;4.30;;
53961;SDS011;39868;53.398;6.564;2022-11-20T07:15:59;10.60;;;4.90;;
53961;SDS011;39868;53.398;6.564;2022-11-20T07:18:30;6.87;;;4.33;;
53961;SDS011;39868;53.398;6.564;2022-11-20T07:21:01;9.23;;;4.37;;
53961;SDS011;39868;53.398;6.564;2022-11-20T07:23:30;7.72;;;4.47;;
53961;SDS011;39868;53.398;6.564;2022-11-20T07:25:58;7.70;;;4.10;;
53961;SDS011;39868;53.398;6.564;2022-11-20T07:28:34;7.50;;;4.40;;
53961;SDS011;39868;53.398;6.564;2022-11-20T07:31:02;6.50;;;3.97;;
53961;SDS011;39868;53.398;6.564;2022-11-20T07:33:31;8.67;;;4.80;;
53961;SDS011;39868;53.398;6.564;2022-11-20T07:36:01;9.03;;;4.70;;
53961;SDS011;39868;53.398;6.564;2022-11-20T07:38:29;9.37;;;4.57;;
53961;SDS011;39868;53.398;6.564;2022-11-20T07:40:57;8.30;;;4.60;;
53961;SDS011;39868;53.398;6.564;2022-11-20T07:43:25;10.03;;;4.60;;
53961;SDS011;39868;53.398;6.564;2022-11-20T07:45:54;7.53;;;4.30;;
53961;SDS011;39868;53.398;6.564;2022-11-20T07:48:23;12.80;;;5.20;;
53961;SDS011;39868;53.398;6.564;2022-11-20T07:50:55;7.90;;;4.73;;
53961;SDS011;39868;53.398;6.564;2022-11-20T07:53:23;8.43;;;4.37;;
53961;SDS011;39868;53.398;6.564;2022-11-20T07:55:51;10.43;;;4.57;;
53961;SDS011;39868;53.398;6.564;2022-11-20T07:58:19;8.27;;;4.30;;
53961;SDS011;39868;53.398;6.564;2022-11-20T08:00:47;6.73;;;4.10;;
53961;SDS011;39868;53.398;6.564;2022-11-20T08:03:15;6.70;;;3.90;;
53961;SDS011;39868;53.398;6.564;2022-11-20T08:05:49;6.27;;;4.00;;
53961;SDS011;39868;53.398;6.564;2022-11-20T08:08:17;5.47;;;3.60;;
53961;SDS011;39868;53.398;6.564;2022-11-20T08:10:45;4.80;;;3.20;;
53961;SDS011;39868;53.398;6.564;2022-11-20T08:13:12;4.03;;;3.20;;
53961;SDS011;39868;53.398;6.564;2022-11-20T08:15:58;4.97;;;3.77;;
53961;SDS011;39868;53.398;6.564;2022-11-20T08:18:25;12.37;;;5.90;;
53961;SDS011;39868;53.398;6.564;2022-11-20T08:21:01;5.00;;;3.47;;
53961;SDS011;39868;53.398;6.564;2022-11-20T08:23:32;12.40;;;5.27;;
53961;SDS011;39868;53.398;6.564;2022-11-20T08:26:00;10.97;;;5.77;;
53961;SDS011;39868;53.398;6.564;2022-11-20T08:28:27;16.50;;;7.93;;
53961;SDS011;39868;53.398;6.564;2022-11-20T08:30:58;6.53;;;5.27;;
53961;SDS011;39868;53.398;6.564;2022-11-20T08:33:27;2.40;;;2.20;;
53961;SDS011;39868;53.398;6.564;2022-11-20T08:35:59;3.00;;;2.10;;
53961;SDS011;39868;53.398;6.564;2022-11-20T08:38:27;2.22;;;1.90;;
53961;SDS011;39868;53.398;6.564;2022-11-20T08:40:56;2.40;;;2.20;;
53961;SDS011;39868;53.398;6.564;2022-11-20T08:43:43;1.73;;;1.60;;
53961;SDS011;39868;53.398;6.564;2022-11-20T08:46:11;2.30;;;2.10;;
53961;SDS011;39868;53.398;6.564;2022-11-20T08:48:38;12.03;;;6.30;;
53961;SDS011;39868;53.398;6.564;2022-11-20T08:51:05;4.37;;;3.20;;
53961;SDS011;39868;53.398;6.564;2022-11-20T08:53:33;15.93;;;6.20;;
53961;SDS011;39868;53.398;6.564;2022-11-20T08:56:00;28.73;;;11.53;;
53961;SDS011;39868;53.398;6.564;2022-11-20T08:58:28;22.70;;;9.37;;
53961;SDS011;39868;53.398;6.564;2022-11-20T09:00:56;10.07;;;4.53;;
53961;SDS011;39868;53.398;6.564;2022-11-20T09:03:24;7.23;;;3.30;;
53961;SDS011;39868;53.398;6.564;2022-11-20T09:06:02;5.60;;;3.93;;
53961;SDS011;39868;53.398;6.564;2022-11-20T09:08:31;12.17;;;5.73;;
53961;SDS011;39868;53.398;6.564;2022-11-20T09:10:59;4.70;;;2.87;;
53961;SDS011;39868;53.398;6.564;2022-11-20T09:13:28;3.80;;;2.30;;
53961;SDS011;39868;53.398;6.564;2022-11-20T09:15:56;7.47;;;3.17;;
53961;SDS011;39868;53.398;6.564;2022-11-20T09:18:34;16.97;;;6.07;;
53961;SDS011;39868;53.398;6.564;2022-11-20T09:21:10;11.23;;;5.20;;
53961;SDS011;39868;53.398;6.564;2022-11-20T09:23:39;17.67;;;8.73;;
53961;SDS011;39868;53.398;6.564;2022-11-20T09:26:09;15.33;;;8.67;;
53961;SDS011;39868;53.398;6.564;2022-11-20T09:28:38;16.17;;;7.47;;
53961;SDS011;39868;53.398;6.564;2022-11-20T09:31:09;8.80;;;5.30;;
53961;SDS011;39868;53.398;6.564;2022-11-20T09:33:49;10.50;;;5.53;;
53961;SDS011;39868;53.398;6.564;2022-11-20T09:36:17;9.90;;;5.10;;
53961;SDS011;39868;53.398;6.564;2022-11-20T09:38:45;17.33;;;6.57;;
53961;SDS011;39868;53.398;6.564;2022-11-20T09:46:53;13.00;;;5.77;;
53961;SDS011;39868;53.398;6.564;2022-11-20T09:52:31;9.00;;;4.77;;
53961;SDS011;39868;53.398;6.564;2022-11-20T09:55:10;8.40;;;4.73;;
53961;SDS011;39868;53.398;6.564;2022-11-20T09:57:40;10.85;;;5.60;;
53961;SDS011;39868;53.398;6.564;2022-11-20T10:05:45;14.20;;;6.33;;
53961;SDS011;39868;53.398;6.564;2022-11-20T10:08:33;10.97;;;5.77;;
53961;SDS011;39868;53.398;6.564;2022-11-20T10:11:18;13.17;;;5.70;;
53961;SDS011;39868;53.398;6.564;2022-11-20T10:14:13;10.57;;;5.40;;
53961;SDS011;39868;53.398;6.564;2022-11-20T10:22:12;8.43;;;4.63;;
53961;SDS011;39868;53.398;6.564;2022-11-20T10:27:29;8.67;;;5.47;;
53961;SDS011;39868;53.398;6.564;2022-11-20T10:30:19;8.53;;;4.97;;
53961;SDS011;39868;53.398;6.564;2022-11-20T10:32:54;11.10;;;6.38;;
53961;SDS011;39868;53.398;6.564;2022-11-20T10:35:41;11.87;;;5.53;;
53961;SDS011;39868;53.398;6.564;2022-11-20T10:38:31;19.57;;;9.00;;
53961;SDS011;39868;53.398;6.564;2022-11-20T10:41:02;12.70;;;7.30;;
53961;SDS011;39868;53.398;6.564;2022-11-20T10:43:52;11.90;;;7.10;;
53961;SDS011;39868;53.398;6.564;2022-11-20T10:46:43;11.30;;;5.93;;
53961;SDS011;39868;53.398;6.564;2022-11-20T10:49:15;11.43;;;5.93;;
53961;SDS011;39868;53.398;6.564;2022-11-20T10:59:55;15.13;;;6.53;;
53961;SDS011;39868;53.398;6.564;2022-11-20T11:02:31;13.53;;;6.27;;
53961;SDS011;39868;53.398;6.564;2022-11-20T11:05:10;19.63;;;8.00;;
53961;SDS011;39868;53.398;6.564;2022-11-20T11:07:40;16.93;;;7.30;;
53961;SDS011;39868;53.398;6.564;2022-11-20T11:10:14;22.23;;;8.13;;
53961;SDS011;39868;53.398;6.564;2022-11-20T11:12:48;16.97;;;7.07;;
53961;SDS011;39868;53.398;6.564;2022-11-20T11:15:26;18.60;;;7.73;;
53961;SDS011;39868;53.398;6.564;2022-11-20T11:17:56;12.20;;;5.80;;
53961;SDS011;39868;53.398;6.564;2022-11-20T11:20:25;11.57;;;5.57;;
53961;SDS011;39868;53.398;6.564;2022-11-20T11:22:57;12.33;;;5.47;;
53961;SDS011;39868;53.398;6.564;2022-11-20T11:28:01;7.43;;;4.57;;
53961;SDS011;39868;53.398;6.564;2022-11-20T11:30:47;11.37;;;5.73;;
53961;SDS011;39868;53.398;6.564;2022-11-20T11:33:30;8.87;;;5.20;;
53961;SDS011;39868;53.398;6.564;2022-11-20T11:36:02;8.53;;;4.40;;
53961;SDS011;39868;53.398;6.564;2022-11-20T11:38:38;8.60;;;4.70;;
53961;SDS011;39868;53.398;6.564;2022-11-20T11:41:12;9.87;;;4.67;;
53961;SDS011;39868;53.398;6.564;2022-11-20T11:43:52;10.23;;;4.63;;
53961;SDS011;39868;53.398;6.564;2022-11-20T11:46:51;8.07;;;4.47;;
53961;SDS011;39868;53.398;6.564;2022-11-20T11:49:21;10.47;;;4.80;;
53961;SDS011;39868;53.398;6.564;2022-11-20T11:54:53;7.90;;;4.03;;
53961;SDS011;39868;53.398;6.564;2022-11-20T12:00:17;9.50;;;4.23;;
53961;SDS011;39868;53.398;6.564;2022-11-20T12:08:02;10.20;;;4.50;;
53961;SDS011;39868;53.398;6.564;2022-11-20T12:11:13;8.70;;;4.30;;
53961;SDS011;39868;53.398;6.564;2022-11-20T12:13:48;9.53;;;4.53;;
53961;SDS011;39868;53.398;6.564;2022-11-20T12:16:23;8.93;;;4.63;;
53961;SDS011;39868;53.398;6.564;2022-11-20T12:18:51;8.83;;;4.63;;
53961;SDS011;39868;53.398;6.564;2022-11-20T12:30:02;11.53;;;4.97;;
53961;SDS011;39868;53.398;6.564;2022-11-20T12:32:42;10.47;;;4.17;;
53961;SDS011;39868;53.398;6.564;2022-11-20T12:35:38;11.20;;;4.97;;
53961;SDS011;39868;53.398;6.564;2022-11-20T12:38:36;11.40;;;5.07;;
53961;SDS011;39868;53.398;6.564;2022-11-20T12:41:33;9.60;;;5.07;;
53961;SDS011;39868;53.398;6.564;2022-11-20T12:44:36;9.13;;;4.37;;
53961;SDS011;39868;53.398;6.564;2022-11-20T12:50:36;9.93;;;4.37;;
53961;SDS011;39868;53.398;6.564;2022-11-20T12:59:19;6.32;;;3.15;;
53961;SDS011;39868;53.398;6.564;2022-11-20T13:02:23;7.80;;;4.03;;
53961;SDS011;39868;53.398;6.564;2022-11-20T13:07:29;7.73;;;4.43;;
53961;SDS011;39868;53.398;6.564;2022-11-20T13:09:59;8.50;;;3.70;;
53961;SDS011;39868;53.398;6.564;2022-11-20T13:15:14;11.03;;;4.80;;
53961;SDS011;39868;53.398;6.564;2022-11-20T13:18:10;8.47;;;4.17;;
53961;SDS011;39868;53.398;6.564;2022-11-20T13:20:42;9.27;;;4.33;;
53961;SDS011;39868;53.398;6.564;2022-11-20T13:23:11;6.40;;;3.70;;
53961;SDS011;39868;53.398;6.564;2022-11-20T13:25:49;7.87;;;3.83;;
53961;SDS011;39868;53.398;6.564;2022-11-20T13:30:51;6.80;;;4.07;;
53961;SDS011;39868;53.398;6.564;2022-11-20T13:33:54;9.53;;;3.77;;
53961;SDS011;39868;53.398;6.564;2022-11-20T13:36:23;7.87;;;4.27;;
53961;SDS011;39868;53.398;6.564;2022-11-20T13:38:54;9.40;;;4.10;;
53961;SDS011;39868;53.398;6.564;2022-11-20T13:41:26;7.63;;;3.70;;
53961;SDS011;39868;53.398;6.564;2022-11-20T13:46:53;7.20;;;3.40;;
53961;SDS011;39868;53.398;6.564;2022-11-20T13:49:55;6.43;;;2.70;;
53961;SDS011;39868;53.398;6.564;2022-11-20T14:01:17;8.47;;;2.83;;
53961;SDS011;39868;53.398;6.564;2022-11-20T14:03:46;5.53;;;3.00;;
53961;SDS011;39868;53.398;6.564;2022-11-20T14:06:34;6.53;;;2.93;;
53961;SDS011;39868;53.398;6.564;2022-11-20T14:12:17;5.57;;;2.77;;
53961;SDS011;39868;53.398;6.564;2022-11-20T14:14:53;5.57;;;3.17;;
53961;SDS011;39868;53.398;6.564;2022-11-20T14:17:31;8.17;;;3.20;;
53961;SDS011;39868;53.398;6.564;2022-11-20T14:20:02;6.63;;;3.17;;
53961;SDS011;39868;53.398;6.564;2022-11-20T14:22:32;5.63;;;2.87;;
53961;SDS011;39868;53.398;6.564;2022-11-20T14:25:21;5.47;;;3.20;;
53961;SDS011;39868;53.398;6.564;2022-11-20T14:27:54;5.90;;;3.33;;
53961;SDS011;39868;53.398;6.564;2022-11-20T14:30:27;9.05;;;3.10;;
53961;SDS011;39868;53.398;6.564;2022-11-20T14:33:03;6.90;;;3.13;;
53961;SDS011;39868;53.398;6.564;2022-11-20T14:35:33;5.17;;;2.97;;
53961;SDS011;39868;53.398;6.564;2022-11-20T14:38:03;3.50;;;2.40;;
53961;SDS011;39868;53.398;6.564;2022-11-20T14:40:36;4.80;;;2.72;;
53961;SDS011;39868;53.398;6.564;2022-11-20T14:43:23;5.70;;;2.70;;
53961;SDS011;39868;53.398;6.564;2022-11-20T14:45:59;4.30;;;2.20;;
53961;SDS011;39868;53.398;6.564;2022-11-20T14:48:39;5.20;;;2.30;;
53961;SDS011;39868;53.398;6.564;2022-11-20T14:51:35;5.50;;;2.87;;
53961;SDS011;39868;53.398;6.564;2022-11-20T14:54:08;7.20;;;3.33;;
53961;SDS011;39868;53.398;6.564;2022-11-20T14:56:37;9.37;;;3.30;;
53961;SDS011;39868;53.398;6.564;2022-11-20T14:59:04;5.57;;;2.90;;
53961;SDS011;39868;53.398;6.564;2022-11-20T15:01:33;4.67;;;2.80;;
53961;SDS011;39868;53.398;6.564;2022-11-20T15:04:10;5.33;;;3.07;;
53961;SDS011;39868;53.398;6.564;2022-11-20T15:06:48;4.60;;;2.70;;
53961;SDS011;39868;53.398;6.564;2022-11-20T15:09:21;7.32;;;2.70;;
53961;SDS011;39868;53.398;6.564;2022-11-20T15:11:52;7.17;;;3.20;;
53961;SDS011;39868;53.398;6.564;2022-11-20T15:14:26;4.20;;;2.80;;
53961;SDS011;39868;53.398;6.564;2022-11-20T15:16:55;7.17;;;2.93;;
53961;SDS011;39868;53.398;6.564;2022-11-20T15:19:24;5.87;;;2.87;;
53961;SDS011;39868;53.398;6.564;2022-11-20T15:21:53;6.17;;;2.83;;
53961;SDS011;39868;53.398;6.564;2022-11-20T15:24:20;6.00;;;3.00;;
53961;SDS011;39868;53.398;6.564;2022-11-20T15:26:48;7.27;;;3.27;;
53961;SDS011;39868;53.398;6.564;2022-11-20T15:29:16;5.87;;;2.90;;
53961;SDS011;39868;53.398;6.564;2022-11-20T15:31:47;5.83;;;3.20;;
53961;SDS011;39868;53.398;6.564;2022-11-20T15:34:15;4.20;;;2.47;;
53961;SDS011;39868;53.398;6.564;2022-11-20T15:36:43;6.27;;;3.10;;
53961;SDS011;39868;53.398;6.564;2022-11-20T15:39:11;5.73;;;3.17;;
53961;SDS011;39868;53.398;6.564;2022-11-20T15:41:38;6.63;;;3.17;;
53961;SDS011;39868;53.398;6.564;2022-11-20T15:44:06;6.00;;;2.83;;
53961;SDS011;39868;53.398;6.564;2022-11-20T15:46:35;4.67;;;2.77;;
53961;SDS011;39868;53.398;6.564;2022-11-20T15:49:08;5.65;;;2.90;;
53961;SDS011;39868;53.398;6.564;2022-11-20T15:51:40;7.00;;;3.50;;
53961;SDS011;39868;53.398;6.564;2022-11-20T15:54:14;6.80;;;3.50;;
53961;SDS011;39868;53.398;6.564;2022-11-20T15:56:44;5.77;;;3.30;;
53961;SDS011;39868;53.398;6.564;2022-11-20T15:59:16;6.30;;;3.40;;
53961;SDS011;39868;53.398;6.564;2022-11-20T16:01:43;6.13;;;3.07;;
53961;SDS011;39868;53.398;6.564;2022-11-20T16:04:15;8.23;;;4.00;;
53961;SDS011;39868;53.398;6.564;2022-11-20T16:06:43;9.00;;;4.60;;
53961;SDS011;39868;53.398;6.564;2022-11-20T16:09:10;9.10;;;4.07;;
53961;SDS011;39868;53.398;6.564;2022-11-20T16:11:38;7.77;;;4.03;;
53961;SDS011;39868;53.398;6.564;2022-11-20T16:14:06;8.20;;;4.97;;
53961;SDS011;39868;53.398;6.564;2022-11-20T16:16:56;8.53;;;4.33;;
53961;SDS011;39868;53.398;6.564;2022-11-20T16:19:24;8.57;;;4.23;;
53961;SDS011;39868;53.398;6.564;2022-11-20T16:21:51;8.50;;;4.50;;
53961;SDS011;39868;53.398;6.564;2022-11-20T16:24:23;8.00;;;3.88;;
53961;SDS011;39868;53.398;6.564;2022-11-20T16:26:52;8.33;;;4.80;;
53961;SDS011;39868;53.398;6.564;2022-11-20T16:29:21;10.87;;;3.73;;
53961;SDS011;39868;53.398;6.564;2022-11-20T16:31:48;8.53;;;4.13;;
53961;SDS011;39868;53.398;6.564;2022-11-20T16:34:16;8.70;;;3.90;;
53961;SDS011;39868;53.398;6.564;2022-11-20T16:36:45;10.33;;;4.30;;
53961;SDS011;39868;53.398;6.564;2022-11-20T16:39:12;7.60;;;4.17;;
53961;SDS011;39868;53.398;6.564;2022-11-20T16:41:47;5.87;;;3.63;;
53961;SDS011;39868;53.398;6.564;2022-11-20T16:44:15;10.40;;;4.30;;